Colorado AWOS List, Phone Numbers, Maps

USA |  
| Search AWOS

Rocky Mountain States: Montana | Wyoming | Colorado | New Mexico

Complete weather reports: Colorado

Legend: KFNL = METAR available Follow your local AWOS on AV Mobile = METAR available on AV Mobile
Station Colorado Location Frequency Phone
KAKOFAA ID AKO, ASOS, KAKO 020353Z AUTO 17009KT 10SM FEW100 16/14 A3008 RMK AO2 RAE0259 SLP142 P0000 T01610144 Follow KAKO on AV Mobile COLORADO PLAINS REGIONAL 135.475 970-345-2320
KALSFAA ID ALS, ASOS, KALS 020352Z AUTO 31003KT 10SM BKN050 OVC090 13/12 A3028 RMK AO2 SLP172 T01330117 Follow KALS on AV Mobile SAN LUIS VALLEY REGIONAL 135.175 719-589-5669
KASEFAA ID ASE, ASOS, KASE 020353Z 21003KT 10SM BKN039 BKN046 OVC095 13/12 A3028 RMK AO2 RAE38 SLP145 P0000 T01330117 Follow KASE on AV Mobile ASPEN-PITKIN COUNTY AIRPORT 120.400 970-925-9168
KBKFFAA ID BKF, KBKF 020343Z 11003KT 10SM TS FEW040 SCT100 BKN200 16/15 A3014 Follow KBKF on AV Mobile Aurora, Buckley Air Force Base Airport
K7BMFAA ID 7BM, AWOS-3, K7BM 020335Z AUTO 00000KT 10SM -DZ SCT055 OVC070 11/10 A3041 RMK AO2 Follow K7BM on AV Mobile Cottonwood Pass 132.050 303-512-4919
KBDUFAA ID BDU, AWOS-3, KBDU 020337Z AUTO 14003KT 10SM SCT080 OVC110 18/16 A3013 RMK AO2 Follow KBDU on AV Mobile Boulder Municipal Airport 118.825 303-541-9540
KAEJFAA ID AEJ, AWOS-3, KAEJ 020335Z AUTO 14007KT 10SM DZ OVC070 13/10 A3030 RMK AO2 T01260101 Follow KAEJ on AV Mobile Central Colorado Regional Airport 132.925 719-395-2599
KITRFAA ID ITR, ASOS, KITR 020353Z AUTO 19009KT 9SM OVC008 19/18 A3007 RMK AO2 RAE08 CIG 006V010 SLP137 P0000 T01940178 Follow KITR on AV Mobile Kit Carson County Airport 135.225 719-346-7036
K1V6FAA ID 1V6, AWOS-3, K1V6 020330Z AUTO 00000KT 10SM -RA OVC110 20/17 A3014 RMK AO2 Follow K1V6 on AV Mobile CANON CITY 120.025
KAFFFAA ID AFF, KAFF 020258Z AUTO 21006KT 10SM OVC100 17/15 A3017 RMK AO2 SLP146 T01680147 52006 Follow KAFF on AV Mobile Air Force Academy
KCOSFAA ID COS, ASOS, KCOS 020254Z 00000KT 10SM BKN090 BKN200 18/13 A3017 Follow KCOS on AV Mobile COLORADO SPRINGS MUNI 125.000 719-637-9696
KFLYFAA ID FLY, AWOS-3PT, KFLY 020235Z AUTO 26003KT 10SM SCT120 16/14 A3020 RMK AO2 T01550137 Follow KFLY on AV Mobile Meadowlake Airport, Peyton, CO 118.450 719-683-5371
KCCUFAA ID CCU, AWOS-3, KCCU 020335Z AUTO 31010KT 1/4SM -RA OVC001 07/05 A3054 RMK AO2 P0003 Follow KCCU on AV Mobile Copper Mountain, Red Cliff Pass 118.075 970-968-1715
KCEZFAA ID CEZ, ASOS, KCEZ 020353Z AUTO 22008KT 10SM SCT065 OVC080 17/13 A3017 RMK AO2 SLP149 T01720133 Follow KCEZ on AV Mobile CORTEZ MONTEZUMA COUNTY AIRPORT 135.625 970-564-0193
KCAGFAA ID CAG, ASOS, KCAG 020353Z AUTO 16003KT 10SM -RA OVC085 14/12 A3022 RMK AO2 RAB43 SLP168 P0000 T01440122 Follow KCAG on AV Mobile CRAIG MOFFAT AIRPORT 135.425 970-824-2373
KRCVFAA ID RCV, AWOS-3PT, KRCV 020330Z AUTO 01005KT 10SM -RA BKN006 OVC011 12/11 A3032 RMK AO2 T01210111 Follow KRCV on AV Mobile DEL NORTE 118.275 719-657-9017
KAJZFAA ID AJZ, AWOS-3, KAJZ 020335Z AUTO 00000KT 10SM OVC080 21/13 A3013 RMK AO2 T02100132 Follow KAJZ on AV Mobile Blake Field Airport 134.000 970-874-3251
KDNRICAO ID KDNR Denver / Stapleton International, Co.
KAPAFAA ID APA, ASOS, KAPA 020353Z 01004KT 10SM FEW065 BKN110 BKN220 17/13 A3016 RMK AO2 SLP154 FRQ LTGICCG DSNT N-NE CB DSNT N-NE MOV NE T01720133 Follow KAPA on AV Mobile DENVER CENTENNIAL AIRPORT 120.300 303-706-9098
KDENFAA ID DEN, ASOS, KDEN 020353Z 13015KT 10SM -TSRA FEW008 SCT040CB OVC060 16/14 A3012 RMK AO2 RAB28 TSB31 SLP137 OCNL LTGICCG NE-SW TS NE-SW MOV SE P0041 T01610139 Follow KDEN on AV Mobile DENVER INTERNATIONAL AIRPORT 125.600 303-342-0838
KFTGFAA ID FTG, AWOS-3, KFTG 020247Z 08007KT 10SM SCT075 BKN085 BKN120 15/14 A3012 Follow KFTG on AV Mobile Front Range Airport 119.025 303-261-9104
KBJCFAA ID BJC, AWOS-3, KBJC 020345Z 04003KT 30SM SCT041 SCT100 18/15 A3015 Follow KBJC on AV Mobile Rocky Mountain Metro Airport 126.250 720-887-8067
K4V5ICAO ID K4V5 Durango Aviation Weather Reporting Station
KDROFAA ID DRO, ASOS, KDRO 020353Z AUTO 00000KT 10SM OVC085 15/12 A3022 RMK AO2 SLP167 T01500122 Follow KDRO on AV Mobile DURANGO-LA PLATA COUNTY AIRPORT 120.625 970-259-3579
KEGEFAA ID EGE, AWOS-3, KEGE 020335Z AUTO 05004KT 10SM FEW060 OVC075 18/ A3022 Follow KEGE on AV Mobile Eagle County Regional 135.575 970-524-7386
CO90FAA ID CO90, ASOS, KZPH 020410Z AUTO 00000KT 10SM CLR 19/19 A3009 RMK AO2 T01900185 Follow  on AV Mobile USAF Academy Bullseye Aux Airstrip 118.325 719-683-3346
K0COFAA ID 0CO, AWOS-3, K0CO 020337Z AUTO 34016G22KT M1/4SM HZ OVC002 03/M03 A3056 RMK AO2 Follow K0CO on AV Mobile EMPIRE 134.325
KEIKFAA ID EIK, AWOS-3, KEIK 020334Z AUTO 00000KT 10SM SCT047 SCT060 BKN120 18/15 A3012 RMK AO2 T01770148 Follow KEIK on AV Mobile Erie Municipal Airport 133.825 303-604-4339
KFCSFAA ID FCS, KFCS 020352Z AUTO 16006KT 10SM CLR 18/15 A3015 RMK AO2 DZE0259DZB50 $ Follow KFCS on AV Mobile Fort Carson
KFCLICAO ID KFCL Fort Collins Supplementary Aviation Weather Reporting Station
KFNLFAA ID FNL, AWOS-3, KFNL 020335Z AUTO 00000KT 10SM FEW120 04/ A3012 RMK AO1 Follow KFNL on AV Mobile Fort Collins/Loveland, Fort Collins-Loveland Municipal Airport 135.075 970-669-9187
KFMMFAA ID FMM, AWOS-3, KFMM 020335Z AUTO 29003KT 10SM CLR 15/14 A3008 RMK AO2 T01520143 Follow KFMM on AV Mobile Fort Morgan Municipal Airport 132.950 970-867-4823
KGNBFAA ID GNB, AWOS-3PT Granby-Grand County Airport 119.925 970-887-1803
KGJTFAA ID GJT, ASOS, KGJT 020353Z 18005KT 10SM BKN095 17/16 A3011 RMK AO2 RAE05 SLP143 P0000 T01670161 Follow KGJT on AV Mobile GRAND JUNCTION WALKER FIELD 118.550 970-245-7881
KGXYFAA ID GXY, AWOS-3, KGXY 020335Z 00000KT 10SM FEW048 BKN100 17/16 A3012 RMK AO1 Follow KGXY on AV Mobile Greeley, Greeley-Weld County Airport 135.175 970-352-3511
K2V9ICAO ID K2V9 Gunnison Aviation Weather Reporting Station
KGUCFAA ID GUC, AWOS-3, KGUC 020335Z AUTO 35004KT 10SM OVC080 14/11 A3031 RMK AO1 Follow KGUC on AV Mobile Gunnison, Gunnison-Crested Butte Regional Airport 135.075 970-641-3240
KHDNFAA ID HDN, AWOS-3, KHDN 020335Z AUTO 28007KT 10SM FEW030 BKN040 13/09 A3022 RMK AO1 Follow KHDN on AV Mobile Hayden, Yampa Valley Airport 119.275 970-276-3690
KHEQFAA ID HEQ, AWOS-3, KHEQ 011835Z AUTO 13008KT BKN010 BKN016 OVC021 20/17 A3015 RMK AO2 PWINO Follow KHEQ on AV Mobile Holyoke Airport 119.275 970-854-3679
K20VFAA ID 20V, AWOS-3, K20V 020336Z AUTO 00000KT 10SM BKN070 OVC075 13/11 A3028 RMK AO2 Follow K20V on AV Mobile Kremmling, Mc Elroy Airfield 118.425 970-724-9659
KLHXFAA ID LHX, ASOS, KLHX 020353Z AUTO 29005KT 10SM OVC100 20/17 A3005 RMK AO2 SLP119 T02000172 Follow KLHX on AV Mobile LA JUNTA MUNICIPAL AIRPORT 135.525 719-384-5961
KVTPFAA ID VTP, AWOS-3, KVTP 020331Z AUTO 20006KT 10SM BKN010 BKN016 OVC080 07/05 A3042 RMK AO2 Follow KVTP on AV Mobile La Veta Mountain, La Veta Pass 119.925 719-587-3120
KLAAFAA ID LAA, ASOS, KLAA 020353Z AUTO 25003KT 10SM BKN100 19/17 A3003 RMK AO2 RAE0256 SLP127 P0000 T01890172 TSNO Follow KLAA on AV Mobile LAMAR MUNICIPAL AIRPORT 135.625 719-336-3854
KLXVFAA ID LXV, ASOS, KLXV 020353Z AUTO 02003KT 10SM SCT036 BKN060 OVC080 09/08 A3040 RMK AO2 RAB17E52 SLP142 P0001 T00890078 Follow KLXV on AV Mobile LEADVILLE LAKE CO 118.375 719-486-2735
KLICFAA ID LIC, ASOS, KLIC 020328Z AUTO 12006KT 10SM BKN007 OVC090 16/14 A3015 Follow KLIC on AV Mobile LIMON MUNICIPAL AIRPORT 121.125 719-775-0515
KLMOFAA ID LMO, AWOS-3, KLMO 020334Z AUTO 00000KT 10SM SCT055 OVC090 19/16 A3014 RMK AO2 T01910161 Follow KLMO on AV Mobile Vance Brand Airport 120.000 303-684-7545
KEEOFAA ID EEO, ASOS, KEEO 020353Z AUTO 07004KT 10SM -RA OVC060 14/12 A3022 RMK AO2 SLP160 P0003 T01390117 Follow KEEO on AV Mobile MEEKER AIRPORT 135.525 970-878-5036
KMYPFAA ID MYP, AWOS-3, KMYP 020333Z AUTO 28007KT 1/4SM FG OVC001 05/05 A3064 RMK AO2 Follow KMYP on AV Mobile Salida Mountain, Monarch Pass 124.175 719-539-4436
KMTJFAA ID MTJ, ASOS, KMTJ 020353Z AUTO 00000KT 10SM OVC090 18/15 A3018 RMK AO2 SLP153 T01780150 Follow KMTJ on AV Mobile MONTROSE REGIONAL AIRPORT 135.225 970-249-1534
KMNHFAA ID MNH, AWOS-3, KMNH 020337Z AUTO 25007KT 10SM SCT060 OVC090 15/12 A3023 RMK AO2 Follow KMNH on AV Mobile Elbert Mountain, Monument Pass 134.375 303-648-3479
KCRVICAO ID KCRV Nederland Mountain, Corona Pass
KAIBFAA ID AIB, AWOS-3, KAIB 020355Z AUTO 25005KT 10SM BKN065 OVC090 17/13 A3021 RMK AO2 LTG DSNT W Follow KAIB on AV Mobile Hopkins Field Airport 132.525 970-864-2325
KPSOFAA ID PSO, AWOS-3, KPSO 020355Z AUTO 33003KT 10SM BKN038 BKN044 OVC050 13/12 A3029 RMK AO2 T01280120 Follow KPSO on AV Mobile Stevens Field Airport 127.175 970-731-0365
KPEFICAO ID KPEF Peterson Air Force Base
KPUXICAO ID KPUX Pueblo NEXRAD
KPUBFAA ID PUB, ASOS, KPUB 020353Z 00000KT 10SM -RA BKN110 20/17 A3009 RMK AO2 SLP134 P0001 T02000172 Follow KPUB on AV Mobile PUEBLO MEMORIAL AIRPORT 125.250 719-948-2803
4V0FAA ID 4V0, AWOS-3PT, KZPH 020410Z AUTO 00000KT 10SM CLR 19/19 A3009 RMK AO2 T01900185 Follow  on AV Mobile RANGELY 119.025 970-675-2339
K1V1ICAO ID K1V1 Rifle Aviation Weather Reporting Station
KRILFAA ID RIL, ASOS, KRIL 020353Z AUTO 00000KT 10SM BKN047 OVC060 17/14 A3016 RMK AO2 SLP156 T01720144 Follow KRIL on AV Mobile RIFLE GARFIELD COUNTY RGNL 135.275 970-625-2206
K04VFAA ID 04V, AWOS-3, K04V 020336Z AUTO 00000KT 10SM DZ SCT010 BKN055 OVC065 12/11 A3032 RMK AO2 Follow K04V on AV Mobile Saguache, Saguache Municipal Airport 118.625 719-655-2229
KS29ICAO ID KS29 Salida
KANKFAA ID ANK, AWOS-3, KANK 020355Z AUTO 18003KT 10SM SCT075 OVC095 14/12 A3035 RMK AO1 T01440115 Follow KANK on AV Mobile Harriet Alexander Field Airport 133.850 719-539-5268
KSPDICAO ID KSPD, KSPD 020256Z AUTO 35005KT 16/16 A3011 RMK AO1 PK WND 28032/0225 WSHFT 0209 SLP150 T01610161 53036 Follow KSPD on AV Mobile SPRINGFIELD COMANCHE NATL
KSBSFAA ID SBS, AWOS-3, KSBS 020335Z AUTO 12004KT 10SM OVC110 14/12 A3023 RMK AO1 T01420120 Follow KSBS on AV Mobile Steamboat Springs 118.325 970-879-7794
KSTKFAA ID STK, AWOS-3, KSTK 020330Z AUTO 36003KT 10SM CLR 16/15 A3005 RMK AO2 Follow KSTK on AV Mobile Sterling Municipal Airport 118.525 970-526-3009
K5SMFAA ID 5SM, AWOS-3, K5SM 020334Z AUTO 00000KT 10SM OVC034 09/09 A3048 RMK AO2 TSNO Follow K5SM on AV Mobile Sunlight 126.075 970-384-3380
KTEXFAA ID TEX, AWOS-3, KTEX 020355Z AUTO 00000KT 7SM BKN004 BKN007 OVC042 12/12 A3037 RMK AO2 T01180118 Follow KTEX on AV Mobile Telluride, Telluride Regional Airport 118.325 970-728-1534
KTADFAA ID TAD, ASOS, KTAD 020254Z AUTO 31006KT 10SM -RA OVC100 18/13 A3015 RMK AO2 SLP138 P0000 60000 T01830128 50012 Follow KTAD on AV Mobile Trinidad, Perry Stokes Airport 119.025 719-845-1156
K33VFAA ID 33V, AWOS-3, K33V 020334Z AUTO 14004KT 10SM BKN095 BKN120 11/08 A3030 RMK AO2 Follow K33V on AV Mobile WALDEN 118.625 970-723-4513
4V1FAA ID 4V1, AWOS-3, KZPH 020410Z AUTO 00000KT 10SM CLR 19/19 A3009 RMK AO2 T01900185 Follow  on AV Mobile Spanish Peaks Airfield 123.600 719-738-1053
K4BMFAA ID 4BM, AWOS-3, K4BM 020336Z AUTO 23006KT 10SM OVC034 07/05 A3052 RMK AO2 Follow K4BM on AV Mobile Wilkerson Pass 132.3 303-512-4418
KC96ICAO ID KC96 Winter Park Resort
KCPWFAA ID CPW, AWOS-3, KCPW 020339Z AUTO 20007KT 3/4SM +DZ OVC001 04/04 A3055 RMK AO2 P0001 Follow KCPW on AV Mobile Pagosa Springs, Wolf Creek Pass 121.125 970-264-2180
K2V5FAA ID 2V5, AWOS-3, K2V5 020255Z AUTO 08007KT 10SM -RA SCT050 BKN085 OVC095 19/18 A3003 RMK AO2 LTG DSNT S THRU W Follow K2V5 on AV Mobile Wray Municipal Airport 118.250 970-332-5930
2V6FAA ID 2V6, AWOS-3, KZPH 020410Z AUTO 00000KT 10SM CLR 19/19 A3009 RMK AO2 T01900185 Follow  on AV Mobile YUMA 135.375 970-848-3007

Click on the AV Mobile icon AV Mobile icon by any station to follow that AWOS feed on AirportView.net Mobile.

Legend: Commercial service airport with AWOS Commercial Airport AWOSNon-Commercial service airport with AWOS Non-Commercial Airport AWOS
Airport AWOS - Click symbol for weather report Fort Morgan Municipal Airport KFMM 020335Z AUTO 29003KT 10SM CLR 15/14 A3008 RMK AO2 T01520143 Hopkins Field Airport KAIB 020355Z AUTO 25005KT 10SM BKN065 OVC090 17/13 A3021 RMK AO2 LTG DSNT W Telluride, Telluride Regional Airport KTEX 020355Z AUTO 00000KT 7SM BKN004 BKN007 OVC042 12/12 A3037 RMK AO2 T01180118 Greeley, Greeley-Weld County Airport KGXY 020335Z 00000KT 10SM FEW048 BKN100 17/16 A3012 RMK AO1 Front Range Airport KFTG 020247Z 08007KT 10SM SCT075 BKN085 BKN120 15/14 A3012 Rocky Mountain Metro Airport KBJC 020345Z 04003KT 30SM SCT041 SCT100 18/15 A3015 DENVER CENTENNIAL AIRPORT KAPA 020353Z 01004KT 10SM FEW065 BKN110 BKN220 17/13 A3016 RMK AO2 SLP154 FRQ LTGICCG DSNT N-NE CB DSNT N-NE MOV NE T01720133 DENVER INTERNATIONAL AIRPORT KDEN 020353Z 13015KT 10SM -TSRA FEW008 SCT040CB OVC060 16/14 A3012 RMK AO2 RAB28 TSB31 SLP137 OCNL LTGICCG NE-SW TS NE-SW MOV SE P0041 T01610139 Fort Collins/Loveland, Fort Collins-Loveland Municipal Airport KFNL 020335Z AUTO 00000KT 10SM FEW120 04/ A3012 RMK AO1 Boulder Municipal Airport KBDU 020337Z AUTO 14003KT 10SM SCT080 OVC110 18/16 A3013 RMK AO2 Vance Brand Airport KLMO 020334Z AUTO 00000KT 10SM SCT055 OVC090 19/16 A3014 RMK AO2 T01910161 Sterling Municipal Airport KSTK 020330Z AUTO 36003KT 10SM CLR 16/15 A3005 RMK AO2 Holyoke Airport KHEQ 011835Z AUTO 13008KT BKN010 BKN016 OVC021 20/17 A3015 RMK AO2 PWINO COLORADO PLAINS REGIONAL KAKO 020353Z AUTO 17009KT 10SM FEW100 16/14 A3008 RMK AO2 RAE0259 SLP142 P0000 T01610144 Kit Carson County Airport KITR 020353Z AUTO 19009KT 9SM OVC008 19/18 A3007 RMK AO2 RAE08 CIG 006V010 SLP137 P0000 T01940178 LIMON MUNICIPAL AIRPORT KLIC 020328Z AUTO 12006KT 10SM BKN007 OVC090 16/14 A3015 COLORADO SPRINGS MUNI KCOS 020254Z 00000KT 10SM BKN090 BKN200 18/13 A3017 LAMAR MUNICIPAL AIRPORT KLAA 020353Z AUTO 25003KT 10SM BKN100 19/17 A3003 RMK AO2 RAE0256 SLP127 P0000 T01890172 TSNO LA JUNTA MUNICIPAL AIRPORT KLHX 020353Z AUTO 29005KT 10SM OVC100 20/17 A3005 RMK AO2 SLP119 T02000172 Trinidad, Perry Stokes Airport KTAD 020254Z AUTO 31006KT 10SM -RA OVC100 18/13 A3015 RMK AO2 SLP138 P0000 60000 T01830128 50012 PUEBLO MEMORIAL AIRPORT KPUB 020353Z 00000KT 10SM -RA BKN110 20/17 A3009 RMK AO2 SLP134 P0001 T02000172 CANON CITY 1V6 SAN LUIS VALLEY REGIONAL KALS 020352Z AUTO 31003KT 10SM BKN050 OVC090 13/12 A3028 RMK AO2 SLP172 T01330117 Saguache, Saguache Municipal Airport K04V 020336Z AUTO 00000KT 10SM DZ SCT010 BKN055 OVC065 12/11 A3032 RMK AO2 Granby-Grand County Airport KGNB WALDEN 33V Steamboat Springs KSBS 020335Z AUTO 12004KT 10SM OVC110 14/12 A3023 RMK AO1 T01420120 Hayden, Yampa Valley Airport KHDN 020335Z AUTO 28007KT 10SM FEW030 BKN040 13/09 A3022 RMK AO1 Kremmling, Mc Elroy Airfield K20V 020336Z AUTO 00000KT 10SM BKN070 OVC075 13/11 A3028 RMK AO2 LEADVILLE LAKE CO KLXV 020353Z AUTO 02003KT 10SM SCT036 BKN060 OVC080 09/08 A3040 RMK AO2 RAB17E52 SLP142 P0001 T00890078 Eagle County Regional KEGE 020335Z AUTO 05004KT 10SM FEW060 OVC075 18/ A3022 CRAIG MOFFAT AIRPORT KCAG 020353Z AUTO 16003KT 10SM -RA OVC085 14/12 A3022 RMK AO2 RAB43 SLP168 P0000 T01440122 MEEKER AIRPORT KEEO 020353Z AUTO 07004KT 10SM -RA OVC060 14/12 A3022 RMK AO2 SLP160 P0003 T01390117 ASPEN-PITKIN COUNTY AIRPORT KASE 020353Z 21003KT 10SM BKN039 BKN046 OVC095 13/12 A3028 RMK AO2 RAE38 SLP145 P0000 T01330117 Gunnison, Gunnison-Crested Butte Regional Airport KGUC 020335Z AUTO 35004KT 10SM OVC080 14/11 A3031 RMK AO1 DURANGO-LA PLATA COUNTY AIRPORT  KDRO 020353Z AUTO 00000KT 10SM OVC085 15/12 A3022 RMK AO2 SLP167 T01500122 Stevens Field Airport KPSO 020355Z AUTO 33003KT 10SM BKN038 BKN044 OVC050 13/12 A3029 RMK AO2 T01280120 CORTEZ MONTEZUMA COUNTY AIRPORT  KCEZ 020353Z AUTO 22008KT 10SM SCT065 OVC080 17/13 A3017 RMK AO2 SLP149 T01720133 MONTROSE REGIONAL AIRPORT KMTJ 020353Z AUTO 00000KT 10SM OVC090 18/15 A3018 RMK AO2 SLP153 T01780150 RIFLE GARFIELD COUNTY RGNL KRIL 020353Z AUTO 00000KT 10SM BKN047 OVC060 17/14 A3016 RMK AO2 SLP156 T01720144 GRAND JUNCTION WALKER FIELD KGJT 020353Z 18005KT 10SM BKN095 17/16 A3011 RMK AO2 RAE05 SLP143 P0000 T01670161 Blake Field Airport KAJZ 020335Z AUTO 00000KT 10SM OVC080 21/13 A3013 RMK AO2 T02100132 Central Colorado Regional Airport KAEJ 020335Z AUTO 14007KT 10SM DZ OVC070 13/10 A3030 RMK AO2 T01260101 Harriet Alexander Field Airport KANK 020355Z AUTO 18003KT 10SM SCT075 OVC095 14/12 A3035 RMK AO1 T01440115 Erie Municipal Airport KEIK 020334Z AUTO 00000KT 10SM SCT047 SCT060 BKN120 18/15 A3012 RMK AO2 T01770148 Wray Municipal Airport K2V5 020255Z AUTO 08007KT 10SM -RA SCT050 BKN085 OVC095 19/18 A3003 RMK AO2 LTG DSNT S THRU W
Legend: High Mountain AWOS Mountain Pass AWOS
Mountain Pass AWOS - Click symbol for weather report Pagosa Springs, Wolf Creek Pass KCPW 020339Z AUTO 20007KT 3/4SM +DZ OVC001 04/04 A3055 RMK AO2 P0001 Saguache, Saguache Municipal Airport K04V 020336Z AUTO 00000KT 10SM DZ SCT010 BKN055 OVC065 12/11 A3032 RMK AO2 Kremmling, Mc Elroy Airfield K20V 020336Z AUTO 00000KT 10SM BKN070 OVC075 13/11 A3028 RMK AO2 La Veta Mountain, La Veta Pass KVTP 020331Z AUTO 20006KT 10SM BKN010 BKN016 OVC080 07/05 A3042 RMK AO2 Salida Mountain, Monarch Pass KMYP 020333Z AUTO 28007KT 1/4SM FG OVC001 05/05 A3064 RMK AO2 Cottonwood Pass K7BM 020335Z AUTO 00000KT 10SM -DZ SCT055 OVC070 11/10 A3041 RMK AO2 Elbert Mountain, Monument Pass KMNH 020337Z AUTO 25007KT 10SM SCT060 OVC090 15/12 A3023 RMK AO2 Wilkerson Pass K4BM 020336Z AUTO 23006KT 10SM OVC034 07/05 A3052 RMK AO2 Copper Mountain, Red Cliff Pass KCCU 020335Z AUTO 31010KT 1/4SM -RA OVC001 07/05 A3054 RMK AO2 P0003 EMPIRE 0CO Sunlight K5SM 020334Z AUTO 00000KT 10SM OVC034 09/09 A3048 RMK AO2 TSNO
Garmin Target Trend Avemco Insurance Company